sensor_id;sensor_type;location;lat;lon;timestamp;P1;durP1;ratioP1;P2;durP2;ratioP2
56255;SDS011;57229;51.432;-2.598;2024-01-15T00:01:26;2.90;;;0.90;;
56255;SDS011;57229;51.432;-2.598;2024-01-15T00:03:55;3.45;;;0.90;;
56255;SDS011;57229;51.432;-2.598;2024-01-15T00:06:30;2.58;;;1.08;;
56255;SDS011;57229;51.432;-2.598;2024-01-15T00:08:57;5.25;;;0.93;;
56255;SDS011;57229;51.432;-2.598;2024-01-15T00:11:23;2.47;;;1.10;;
56255;SDS011;57229;51.432;-2.598;2024-01-15T00:13:49;1.63;;;0.90;;
56255;SDS011;57229;51.432;-2.598;2024-01-15T00:16:21;4.03;;;0.98;;
56255;SDS011;57229;51.432;-2.598;2024-01-15T00:18:46;3.50;;;1.02;;
56255;SDS011;57229;51.432;-2.598;2024-01-15T00:21:12;4.20;;;1.20;;
56255;SDS011;57229;51.432;-2.598;2024-01-15T00:23:42;3.13;;;1.10;;
56255;SDS011;57229;51.432;-2.598;2024-01-15T00:26:09;4.35;;;1.25;;
56255;SDS011;57229;51.432;-2.598;2024-01-15T00:28:38;1.52;;;0.70;;
56255;SDS011;57229;51.432;-2.598;2024-01-15T00:31:04;2.63;;;1.00;;
56255;SDS011;57229;51.432;-2.598;2024-01-15T00:33:47;4.82;;;1.00;;
56255;SDS011;57229;51.432;-2.598;2024-01-15T00:36:19;1.15;;;0.88;;
56255;SDS011;57229;51.432;-2.598;2024-01-15T00:38:45;2.03;;;0.90;;
56255;SDS011;57229;51.432;-2.598;2024-01-15T00:41:12;3.38;;;0.98;;
56255;SDS011;57229;51.432;-2.598;2024-01-15T00:43:38;1.95;;;1.02;;
56255;SDS011;57229;51.432;-2.598;2024-01-15T00:46:04;4.78;;;1.17;;
56255;SDS011;57229;51.432;-2.598;2024-01-15T00:48:30;5.40;;;1.10;;
56255;SDS011;57229;51.432;-2.598;2024-01-15T00:50:56;2.30;;;1.20;;
56255;SDS011;57229;51.432;-2.598;2024-01-15T00:53:22;2.78;;;0.95;;
56255;SDS011;57229;51.432;-2.598;2024-01-15T00:55:48;3.10;;;1.30;;
56255;SDS011;57229;51.432;-2.598;2024-01-15T00:58:13;1.70;;;1.00;;
56255;SDS011;57229;51.432;-2.598;2024-01-15T01:00:39;4.25;;;1.30;;
56255;SDS011;57229;51.432;-2.598;2024-01-15T01:03:05;4.65;;;1.10;;
56255;SDS011;57229;51.432;-2.598;2024-01-15T01:05:31;2.75;;;0.98;;
56255;SDS011;57229;51.432;-2.598;2024-01-15T01:07:58;1.40;;;0.90;;
56255;SDS011;57229;51.432;-2.598;2024-01-15T01:10:24;1.00;;;0.85;;
56255;SDS011;57229;51.432;-2.598;2024-01-15T01:12:49;2.88;;;1.05;;
56255;SDS011;57229;51.432;-2.598;2024-01-15T01:15:15;1.60;;;0.88;;
56255;SDS011;57229;51.432;-2.598;2024-01-15T01:17:41;2.65;;;1.00;;
56255;SDS011;57229;51.432;-2.598;2024-01-15T01:20:07;5.88;;;1.10;;
56255;SDS011;57229;51.432;-2.598;2024-01-15T01:22:34;2.10;;;1.00;;
56255;SDS011;57229;51.432;-2.598;2024-01-15T01:25:00;3.75;;;1.00;;
56255;SDS011;57229;51.432;-2.598;2024-01-15T01:27:26;5.28;;;1.10;;
56255;SDS011;57229;51.432;-2.598;2024-01-15T01:29:51;4.03;;;1.08;;
56255;SDS011;57229;51.432;-2.598;2024-01-15T01:32:17;2.58;;;1.00;;
56255;SDS011;57229;51.432;-2.598;2024-01-15T01:35:09;1.67;;;0.98;;
56255;SDS011;57229;51.432;-2.598;2024-01-15T01:38:17;1.45;;;0.90;;
56255;SDS011;57229;51.432;-2.598;2024-01-15T01:44:12;1.45;;;0.75;;
56255;SDS011;57229;51.432;-2.598;2024-01-15T01:46:54;3.45;;;0.80;;
56255;SDS011;57229;51.432;-2.598;2024-01-15T01:49:22;3.03;;;0.90;;
56255;SDS011;57229;51.432;-2.598;2024-01-15T01:51:49;1.85;;;0.80;;
56255;SDS011;57229;51.432;-2.598;2024-01-15T01:54:15;3.75;;;0.70;;
56255;SDS011;57229;51.432;-2.598;2024-01-15T01:56:41;1.02;;;0.70;;
56255;SDS011;57229;51.432;-2.598;2024-01-15T01:59:08;3.40;;;0.90;;
56255;SDS011;57229;51.432;-2.598;2024-01-15T02:01:36;1.60;;;1.00;;
56255;SDS011;57229;51.432;-2.598;2024-01-15T02:04:29;1.85;;;1.00;;
56255;SDS011;57229;51.432;-2.598;2024-01-15T02:10:08;4.20;;;1.45;;
56255;SDS011;57229;51.432;-2.598;2024-01-15T02:12:34;3.42;;;1.20;;
56255;SDS011;57229;51.432;-2.598;2024-01-15T02:15:00;5.28;;;1.15;;
56255;SDS011;57229;51.432;-2.598;2024-01-15T02:17:27;5.72;;;1.55;;
56255;SDS011;57229;51.432;-2.598;2024-01-15T02:19:53;1.90;;;1.30;;
56255;SDS011;57229;51.432;-2.598;2024-01-15T02:22:18;2.10;;;1.23;;
56255;SDS011;57229;51.432;-2.598;2024-01-15T02:24:45;2.42;;;1.35;;
56255;SDS011;57229;51.432;-2.598;2024-01-15T02:27:10;5.32;;;1.70;;
56255;SDS011;57229;51.432;-2.598;2024-01-15T02:29:36;3.10;;;1.50;;
56255;SDS011;57229;51.432;-2.598;2024-01-15T02:32:06;2.97;;;1.50;;
56255;SDS011;57229;51.432;-2.598;2024-01-15T02:34:41;2.90;;;1.30;;
56255;SDS011;57229;51.432;-2.598;2024-01-15T02:37:12;3.08;;;1.50;;
56255;SDS011;57229;51.432;-2.598;2024-01-15T02:39:38;3.80;;;1.50;;
56255;SDS011;57229;51.432;-2.598;2024-01-15T02:42:04;3.92;;;1.17;;
56255;SDS011;57229;51.432;-2.598;2024-01-15T02:44:30;7.13;;;1.50;;
56255;SDS011;57229;51.432;-2.598;2024-01-15T02:46:55;1.88;;;1.08;;
56255;SDS011;57229;51.432;-2.598;2024-01-15T02:49:21;3.20;;;1.20;;
56255;SDS011;57229;51.432;-2.598;2024-01-15T02:51:47;1.88;;;1.27;;
56255;SDS011;57229;51.432;-2.598;2024-01-15T02:57:43;3.70;;;1.55;;
56255;SDS011;57229;51.432;-2.598;2024-01-15T03:00:09;2.13;;;1.00;;
56255;SDS011;57229;51.432;-2.598;2024-01-15T03:02:38;4.07;;;1.10;;
56255;SDS011;57229;51.432;-2.598;2024-01-15T03:05:07;3.70;;;1.30;;
56255;SDS011;57229;51.432;-2.598;2024-01-15T03:07:33;5.28;;;1.17;;
56255;SDS011;57229;51.432;-2.598;2024-01-15T03:09:59;2.63;;;1.17;;
56255;SDS011;57229;51.432;-2.598;2024-01-15T03:12:25;3.25;;;1.27;;
56255;SDS011;57229;51.432;-2.598;2024-01-15T03:20:48;5.03;;;1.63;;
56255;SDS011;57229;51.432;-2.598;2024-01-15T03:23:14;4.88;;;1.50;;
56255;SDS011;57229;51.432;-2.598;2024-01-15T03:25:40;2.80;;;1.20;;
56255;SDS011;57229;51.432;-2.598;2024-01-15T03:28:08;6.25;;;1.30;;
56255;SDS011;57229;51.432;-2.598;2024-01-15T03:30:36;2.28;;;1.30;;
56255;SDS011;57229;51.432;-2.598;2024-01-15T03:33:02;8.55;;;1.52;;
56255;SDS011;57229;51.432;-2.598;2024-01-15T03:35:32;3.97;;;1.42;;
56255;SDS011;57229;51.432;-2.598;2024-01-15T03:38:40;3.67;;;1.10;;
56255;SDS011;57229;51.432;-2.598;2024-01-15T03:41:06;5.10;;;1.27;;
56255;SDS011;57229;51.432;-2.598;2024-01-15T03:43:32;4.10;;;1.42;;
56255;SDS011;57229;51.432;-2.598;2024-01-15T03:45:58;2.70;;;1.30;;
56255;SDS011;57229;51.432;-2.598;2024-01-15T03:48:24;5.50;;;1.40;;
56255;SDS011;57229;51.432;-2.598;2024-01-15T03:50:50;4.00;;;1.50;;
56255;SDS011;57229;51.432;-2.598;2024-01-15T03:53:15;5.53;;;2.20;;
56255;SDS011;57229;51.432;-2.598;2024-01-15T03:55:41;2.65;;;1.10;;
56255;SDS011;57229;51.432;-2.598;2024-01-15T03:58:08;4.80;;;1.33;;
56255;SDS011;57229;51.432;-2.598;2024-01-15T04:00:34;4.88;;;1.23;;
56255;SDS011;57229;51.432;-2.598;2024-01-15T04:02:59;3.03;;;1.55;;
56255;SDS011;57229;51.432;-2.598;2024-01-15T04:05:25;1.38;;;1.13;;
56255;SDS011;57229;51.432;-2.598;2024-01-15T04:07:51;6.32;;;1.38;;
56255;SDS011;57229;51.432;-2.598;2024-01-15T04:10:17;2.10;;;1.17;;
56255;SDS011;57229;51.432;-2.598;2024-01-15T04:12:42;2.13;;;1.17;;
56255;SDS011;57229;51.432;-2.598;2024-01-15T04:15:08;2.05;;;1.40;;
56255;SDS011;57229;51.432;-2.598;2024-01-15T04:17:34;4.63;;;1.10;;
56255;SDS011;57229;51.432;-2.598;2024-01-15T04:20:00;2.20;;;1.00;;
56255;SDS011;57229;51.432;-2.598;2024-01-15T04:22:26;6.65;;;2.97;;
56255;SDS011;57229;51.432;-2.598;2024-01-15T04:24:52;3.00;;;1.30;;
56255;SDS011;57229;51.432;-2.598;2024-01-15T04:27:18;3.15;;;1.30;;
56255;SDS011;57229;51.432;-2.598;2024-01-15T04:29:49;4.35;;;1.17;;
56255;SDS011;57229;51.432;-2.598;2024-01-15T04:32:44;3.47;;;1.00;;
56255;SDS011;57229;51.432;-2.598;2024-01-15T04:35:10;3.35;;;1.10;;
56255;SDS011;57229;51.432;-2.598;2024-01-15T04:37:37;4.15;;;1.10;;
56255;SDS011;57229;51.432;-2.598;2024-01-15T04:43:38;3.88;;;1.52;;
56255;SDS011;57229;51.432;-2.598;2024-01-15T04:49:57;1.20;;;0.70;;
56255;SDS011;57229;51.432;-2.598;2024-01-15T04:55:10;3.75;;;1.13;;
56255;SDS011;57229;51.432;-2.598;2024-01-15T04:57:36;3.80;;;1.05;;
56255;SDS011;57229;51.432;-2.598;2024-01-15T05:00:02;8.27;;;1.00;;
56255;SDS011;57229;51.432;-2.598;2024-01-15T05:05:23;2.13;;;0.93;;
56255;SDS011;57229;51.432;-2.598;2024-01-15T05:07:49;1.10;;;0.80;;
56255;SDS011;57229;51.432;-2.598;2024-01-15T05:10:14;5.35;;;1.00;;
56255;SDS011;57229;51.432;-2.598;2024-01-15T05:12:40;3.05;;;0.95;;
56255;SDS011;57229;51.432;-2.598;2024-01-15T05:15:06;5.10;;;1.10;;
56255;SDS011;57229;51.432;-2.598;2024-01-15T05:17:32;4.18;;;1.00;;
56255;SDS011;57229;51.432;-2.598;2024-01-15T05:19:57;4.95;;;0.95;;
56255;SDS011;57229;51.432;-2.598;2024-01-15T05:22:23;4.43;;;1.10;;
56255;SDS011;57229;51.432;-2.598;2024-01-15T05:24:49;6.88;;;1.02;;
56255;SDS011;57229;51.432;-2.598;2024-01-15T05:27:15;1.95;;;0.90;;
56255;SDS011;57229;51.432;-2.598;2024-01-15T05:29:41;2.30;;;1.00;;
56255;SDS011;57229;51.432;-2.598;2024-01-15T05:32:07;8.30;;;1.25;;
56255;SDS011;57229;51.432;-2.598;2024-01-15T05:34:32;2.72;;;1.02;;
56255;SDS011;57229;51.432;-2.598;2024-01-15T05:36:58;2.67;;;1.00;;
56255;SDS011;57229;51.432;-2.598;2024-01-15T05:39:23;1.67;;;0.75;;
56255;SDS011;57229;51.432;-2.598;2024-01-15T05:41:49;4.80;;;1.10;;
56255;SDS011;57229;51.432;-2.598;2024-01-15T05:44:15;6.57;;;1.00;;
56255;SDS011;57229;51.432;-2.598;2024-01-15T05:46:41;3.50;;;1.25;;
56255;SDS011;57229;51.432;-2.598;2024-01-15T05:49:07;5.35;;;1.10;;
56255;SDS011;57229;51.432;-2.598;2024-01-15T05:51:32;5.90;;;1.20;;
56255;SDS011;57229;51.432;-2.598;2024-01-15T05:53:58;4.75;;;1.20;;
56255;SDS011;57229;51.432;-2.598;2024-01-15T05:56:24;6.75;;;1.55;;
56255;SDS011;57229;51.432;-2.598;2024-01-15T05:58:50;2.03;;;0.90;;
56255;SDS011;57229;51.432;-2.598;2024-01-15T06:01:16;6.20;;;1.23;;
56255;SDS011;57229;51.432;-2.598;2024-01-15T06:07:20;8.20;;;1.40;;
56255;SDS011;57229;51.432;-2.598;2024-01-15T06:09:45;3.03;;;1.10;;
56255;SDS011;57229;51.432;-2.598;2024-01-15T06:12:11;1.98;;;0.90;;
56255;SDS011;57229;51.432;-2.598;2024-01-15T06:14:37;4.22;;;1.30;;
56255;SDS011;57229;51.432;-2.598;2024-01-15T06:17:03;3.58;;;1.30;;
56255;SDS011;57229;51.432;-2.598;2024-01-15T06:19:28;10.93;;;2.05;;
56255;SDS011;57229;51.432;-2.598;2024-01-15T06:21:54;6.15;;;1.48;;
56255;SDS011;57229;51.432;-2.598;2024-01-15T06:24:20;2.53;;;1.00;;
56255;SDS011;57229;51.432;-2.598;2024-01-15T06:26:46;1.75;;;1.20;;
56255;SDS011;57229;51.432;-2.598;2024-01-15T06:29:12;1.98;;;1.10;;
56255;SDS011;57229;51.432;-2.598;2024-01-15T06:31:38;4.15;;;1.13;;
56255;SDS011;57229;51.432;-2.598;2024-01-15T06:34:03;5.90;;;1.00;;
56255;SDS011;57229;51.432;-2.598;2024-01-15T06:36:29;5.22;;;1.30;;
56255;SDS011;57229;51.432;-2.598;2024-01-15T06:38:54;2.50;;;1.10;;
56255;SDS011;57229;51.432;-2.598;2024-01-15T06:41:21;4.28;;;1.42;;
56255;SDS011;57229;51.432;-2.598;2024-01-15T06:43:49;4.13;;;1.55;;
56255;SDS011;57229;51.432;-2.598;2024-01-15T06:46:24;5.95;;;1.25;;
56255;SDS011;57229;51.432;-2.598;2024-01-15T06:48:50;7.45;;;1.35;;
56255;SDS011;57229;51.432;-2.598;2024-01-15T06:51:16;5.65;;;1.80;;
56255;SDS011;57229;51.432;-2.598;2024-01-15T06:53:41;3.83;;;1.20;;
56255;SDS011;57229;51.432;-2.598;2024-01-15T06:56:07;4.25;;;1.77;;
56255;SDS011;57229;51.432;-2.598;2024-01-15T06:58:33;4.07;;;1.50;;
56255;SDS011;57229;51.432;-2.598;2024-01-15T07:00:59;8.25;;;2.15;;
56255;SDS011;57229;51.432;-2.598;2024-01-15T07:03:24;4.70;;;1.83;;
56255;SDS011;57229;51.432;-2.598;2024-01-15T07:05:50;3.00;;;1.85;;
56255;SDS011;57229;51.432;-2.598;2024-01-15T07:08:16;5.25;;;1.60;;
56255;SDS011;57229;51.432;-2.598;2024-01-15T07:10:41;6.90;;;1.80;;
56255;SDS011;57229;51.432;-2.598;2024-01-15T07:13:07;4.28;;;1.98;;
56255;SDS011;57229;51.432;-2.598;2024-01-15T07:15:32;9.02;;;1.90;;
56255;SDS011;57229;51.432;-2.598;2024-01-15T07:17:58;5.70;;;1.90;;
56255;SDS011;57229;51.432;-2.598;2024-01-15T07:20:24;7.57;;;1.95;;
56255;SDS011;57229;51.432;-2.598;2024-01-15T07:22:49;7.82;;;1.95;;
56255;SDS011;57229;51.432;-2.598;2024-01-15T07:25:15;7.93;;;2.05;;
56255;SDS011;57229;51.432;-2.598;2024-01-15T07:27:41;8.13;;;2.80;;
56255;SDS011;57229;51.432;-2.598;2024-01-15T07:30:09;5.10;;;2.63;;
56255;SDS011;57229;51.432;-2.598;2024-01-15T07:32:36;6.88;;;2.47;;
56255;SDS011;57229;51.432;-2.598;2024-01-15T07:35:02;8.18;;;2.58;;
56255;SDS011;57229;51.432;-2.598;2024-01-15T07:37:28;7.10;;;3.17;;
56255;SDS011;57229;51.432;-2.598;2024-01-15T07:39:53;5.63;;;3.08;;
56255;SDS011;57229;51.432;-2.598;2024-01-15T07:42:19;5.70;;;2.47;;
56255;SDS011;57229;51.432;-2.598;2024-01-15T07:44:45;7.97;;;2.45;;
56255;SDS011;57229;51.432;-2.598;2024-01-15T07:47:10;11.63;;;3.03;;
56255;SDS011;57229;51.432;-2.598;2024-01-15T07:49:36;5.00;;;2.63;;
56255;SDS011;57229;51.432;-2.598;2024-01-15T07:52:02;10.02;;;3.72;;
56255;SDS011;57229;51.432;-2.598;2024-01-15T07:54:29;5.60;;;2.13;;
56255;SDS011;57229;51.432;-2.598;2024-01-15T07:57:01;9.50;;;2.15;;
56255;SDS011;57229;51.432;-2.598;2024-01-15T07:59:30;10.30;;;2.40;;
56255;SDS011;57229;51.432;-2.598;2024-01-15T08:01:57;7.65;;;2.47;;
56255;SDS011;57229;51.432;-2.598;2024-01-15T08:04:24;9.88;;;5.07;;
56255;SDS011;57229;51.432;-2.598;2024-01-15T08:06:49;12.38;;;5.43;;
56255;SDS011;57229;51.432;-2.598;2024-01-15T08:09:16;5.63;;;2.55;;
56255;SDS011;57229;51.432;-2.598;2024-01-15T08:11:42;6.80;;;2.20;;
56255;SDS011;57229;51.432;-2.598;2024-01-15T08:14:08;5.45;;;2.25;;
56255;SDS011;57229;51.432;-2.598;2024-01-15T08:16:35;4.68;;;2.15;;
56255;SDS011;57229;51.432;-2.598;2024-01-15T08:19:01;4.35;;;2.20;;
56255;SDS011;57229;51.432;-2.598;2024-01-15T08:21:27;5.18;;;2.10;;
56255;SDS011;57229;51.432;-2.598;2024-01-15T08:23:57;3.95;;;2.20;;
56255;SDS011;57229;51.432;-2.598;2024-01-15T08:26:26;5.38;;;2.58;;
56255;SDS011;57229;51.432;-2.598;2024-01-15T08:28:51;6.22;;;2.30;;
56255;SDS011;57229;51.432;-2.598;2024-01-15T08:31:17;6.97;;;2.28;;
56255;SDS011;57229;51.432;-2.598;2024-01-15T08:33:43;5.78;;;2.10;;
56255;SDS011;57229;51.432;-2.598;2024-01-15T08:36:11;5.50;;;2.45;;
56255;SDS011;57229;51.432;-2.598;2024-01-15T08:38:40;5.22;;;1.70;;
56255;SDS011;57229;51.432;-2.598;2024-01-15T08:41:06;7.20;;;1.80;;
56255;SDS011;57229;51.432;-2.598;2024-01-15T08:43:33;7.03;;;2.00;;
56255;SDS011;57229;51.432;-2.598;2024-01-15T08:45:59;7.40;;;2.08;;
56255;SDS011;57229;51.432;-2.598;2024-01-15T08:48:25;7.22;;;2.13;;
56255;SDS011;57229;51.432;-2.598;2024-01-15T08:50:54;6.43;;;2.22;;
56255;SDS011;57229;51.432;-2.598;2024-01-15T08:53:20;4.93;;;1.88;;
56255;SDS011;57229;51.432;-2.598;2024-01-15T08:55:46;8.80;;;2.40;;
56255;SDS011;57229;51.432;-2.598;2024-01-15T08:58:12;8.75;;;4.05;;
56255;SDS011;57229;51.432;-2.598;2024-01-15T09:00:38;9.68;;;3.10;;
56255;SDS011;57229;51.432;-2.598;2024-01-15T09:03:04;6.93;;;2.80;;
56255;SDS011;57229;51.432;-2.598;2024-01-15T09:05:35;7.53;;;2.72;;
56255;SDS011;57229;51.432;-2.598;2024-01-15T09:08:25;8.13;;;3.33;;
56255;SDS011;57229;51.432;-2.598;2024-01-15T09:10:52;6.70;;;2.97;;
56255;SDS011;57229;51.432;-2.598;2024-01-15T09:13:18;10.77;;;2.92;;
56255;SDS011;57229;51.432;-2.598;2024-01-15T09:15:43;7.68;;;2.72;;
56255;SDS011;57229;51.432;-2.598;2024-01-15T09:18:09;7.60;;;2.60;;
56255;SDS011;57229;51.432;-2.598;2024-01-15T09:20:35;8.93;;;3.40;;
56255;SDS011;57229;51.432;-2.598;2024-01-15T09:23:00;7.82;;;2.45;;
56255;SDS011;57229;51.432;-2.598;2024-01-15T09:25:26;8.20;;;2.60;;
56255;SDS011;57229;51.432;-2.598;2024-01-15T09:27:51;7.90;;;2.78;;
56255;SDS011;57229;51.432;-2.598;2024-01-15T09:30:18;6.32;;;2.60;;
56255;SDS011;57229;51.432;-2.598;2024-01-15T09:32:43;6.70;;;2.92;;
56255;SDS011;57229;51.432;-2.598;2024-01-15T09:35:09;8.85;;;2.80;;
56255;SDS011;57229;51.432;-2.598;2024-01-15T09:37:35;10.57;;;2.85;;
56255;SDS011;57229;51.432;-2.598;2024-01-15T09:40:02;6.47;;;2.50;;
56255;SDS011;57229;51.432;-2.598;2024-01-15T09:42:28;5.47;;;2.40;;
56255;SDS011;57229;51.432;-2.598;2024-01-15T09:44:54;7.43;;;2.45;;
56255;SDS011;57229;51.432;-2.598;2024-01-15T09:47:20;6.75;;;2.30;;
56255;SDS011;57229;51.432;-2.598;2024-01-15T09:49:47;7.68;;;1.92;;
56255;SDS011;57229;51.432;-2.598;2024-01-15T09:52:12;7.35;;;1.70;;
56255;SDS011;57229;51.432;-2.598;2024-01-15T09:54:43;5.72;;;1.63;;
56255;SDS011;57229;51.432;-2.598;2024-01-15T09:57:09;4.00;;;1.20;;
56255;SDS011;57229;51.432;-2.598;2024-01-15T09:59:34;5.07;;;1.50;;
56255;SDS011;57229;51.432;-2.598;2024-01-15T10:02:02;3.85;;;1.55;;
56255;SDS011;57229;51.432;-2.598;2024-01-15T10:04:28;5.95;;;1.50;;
56255;SDS011;57229;51.432;-2.598;2024-01-15T10:06:54;8.93;;;1.50;;
56255;SDS011;57229;51.432;-2.598;2024-01-15T10:09:22;6.75;;;1.15;;
56255;SDS011;57229;51.432;-2.598;2024-01-15T10:11:48;2.30;;;1.00;;
56255;SDS011;57229;51.432;-2.598;2024-01-15T10:14:14;4.88;;;1.00;;
56255;SDS011;57229;51.432;-2.598;2024-01-15T10:16:40;1.83;;;1.08;;
56255;SDS011;57229;51.432;-2.598;2024-01-15T10:19:06;4.35;;;1.00;;
56255;SDS011;57229;51.432;-2.598;2024-01-15T10:21:32;4.82;;;1.40;;
56255;SDS011;57229;51.432;-2.598;2024-01-15T10:24:01;2.65;;;0.88;;
56255;SDS011;57229;51.432;-2.598;2024-01-15T10:26:28;10.40;;;1.15;;
56255;SDS011;57229;51.432;-2.598;2024-01-15T10:28:53;1.98;;;1.00;;
56255;SDS011;57229;51.432;-2.598;2024-01-15T10:31:19;3.08;;;1.02;;
56255;SDS011;57229;51.432;-2.598;2024-01-15T10:33:46;5.95;;;1.10;;
56255;SDS011;57229;51.432;-2.598;2024-01-15T10:36:15;6.13;;;1.10;;
56255;SDS011;57229;51.432;-2.598;2024-01-15T10:38:45;6.20;;;1.10;;
56255;SDS011;57229;51.432;-2.598;2024-01-15T10:41:11;2.80;;;1.05;;
56255;SDS011;57229;51.432;-2.598;2024-01-15T10:43:37;5.00;;;0.88;;
56255;SDS011;57229;51.432;-2.598;2024-01-15T10:46:36;3.63;;;1.20;;
56255;SDS011;57229;51.432;-2.598;2024-01-15T10:48:59;7.32;;;1.00;;
56255;SDS011;57229;51.432;-2.598;2024-01-15T10:51:25;1.63;;;0.90;;
56255;SDS011;57229;51.432;-2.598;2024-01-15T10:53:51;5.43;;;1.10;;
56255;SDS011;57229;51.432;-2.598;2024-01-15T10:56:18;3.90;;;1.00;;
56255;SDS011;57229;51.432;-2.598;2024-01-15T10:58:44;2.42;;;0.90;;
56255;SDS011;57229;51.432;-2.598;2024-01-15T11:01:11;2.78;;;1.00;;
56255;SDS011;57229;51.432;-2.598;2024-01-15T11:03:37;1.58;;;0.80;;
56255;SDS011;57229;51.432;-2.598;2024-01-15T11:06:08;1.85;;;0.85;;
56255;SDS011;57229;51.432;-2.598;2024-01-15T11:08:43;2.35;;;0.80;;
56255;SDS011;57229;51.432;-2.598;2024-01-15T11:11:09;1.70;;;0.80;;
56255;SDS011;57229;51.432;-2.598;2024-01-15T11:16:06;2.95;;;1.00;;
56255;SDS011;57229;51.432;-2.598;2024-01-15T11:18:36;2.17;;;0.80;;
56255;SDS011;57229;51.432;-2.598;2024-01-15T11:28:58;5.80;;;2.90;;
56255;SDS011;57229;51.432;-2.598;2024-01-15T11:34:06;8.43;;;3.03;;
56255;SDS011;57229;51.432;-2.598;2024-01-15T11:42:00;6.72;;;3.13;;
56255;SDS011;57229;51.432;-2.598;2024-01-15T11:44:27;3.50;;;3.17;;
56255;SDS011;57229;51.432;-2.598;2024-01-15T11:46:57;3.83;;;2.78;;
56255;SDS011;57229;51.432;-2.598;2024-01-15T11:50:08;3.65;;;2.90;;
56255;SDS011;57229;51.432;-2.598;2024-01-15T11:55:07;7.18;;;3.45;;
56255;SDS011;57229;51.432;-2.598;2024-01-15T11:57:54;8.10;;;3.28;;
56255;SDS011;57229;51.432;-2.598;2024-01-15T12:00:20;5.03;;;2.88;;
56255;SDS011;57229;51.432;-2.598;2024-01-15T12:02:48;3.03;;;2.72;;
56255;SDS011;57229;51.432;-2.598;2024-01-15T12:05:16;5.35;;;3.28;;
56255;SDS011;57229;51.432;-2.598;2024-01-15T12:07:43;4.88;;;3.55;;
56255;SDS011;57229;51.432;-2.598;2024-01-15T12:10:10;3.50;;;3.00;;
56255;SDS011;57229;51.432;-2.598;2024-01-15T12:15:21;9.10;;;4.57;;
56255;SDS011;57229;51.432;-2.598;2024-01-15T12:17:47;5.88;;;3.28;;
56255;SDS011;57229;51.432;-2.598;2024-01-15T12:20:13;5.20;;;0.95;;
56255;SDS011;57229;51.432;-2.598;2024-01-15T12:22:40;5.80;;;1.33;;
56255;SDS011;57229;51.432;-2.598;2024-01-15T12:25:06;5.03;;;1.10;;
56255;SDS011;57229;51.432;-2.598;2024-01-15T12:27:32;4.88;;;0.93;;
56255;SDS011;57229;51.432;-2.598;2024-01-15T12:29:58;5.53;;;0.98;;
56255;SDS011;57229;51.432;-2.598;2024-01-15T12:32:24;3.35;;;1.00;;
56255;SDS011;57229;51.432;-2.598;2024-01-15T12:34:50;3.95;;;1.02;;
56255;SDS011;57229;51.432;-2.598;2024-01-15T12:37:19;2.65;;;1.20;;
56255;SDS011;57229;51.432;-2.598;2024-01-15T12:39:45;3.85;;;1.38;;
56255;SDS011;57229;51.432;-2.598;2024-01-15T12:42:11;3.53;;;1.13;;
56255;SDS011;57229;51.432;-2.598;2024-01-15T12:44:36;3.92;;;1.20;;
56255;SDS011;57229;51.432;-2.598;2024-01-15T12:47:06;2.03;;;1.50;;
56255;SDS011;57229;51.432;-2.598;2024-01-15T12:49:32;4.75;;;1.65;;
56255;SDS011;57229;51.432;-2.598;2024-01-15T12:51:58;3.97;;;1.80;;
56255;SDS011;57229;51.432;-2.598;2024-01-15T12:54:24;4.70;;;1.50;;
56255;SDS011;57229;51.432;-2.598;2024-01-15T12:56:51;8.00;;;1.48;;
56255;SDS011;57229;51.432;-2.598;2024-01-15T12:59:17;3.28;;;1.35;;
56255;SDS011;57229;51.432;-2.598;2024-01-15T13:01:44;5.13;;;3.35;;
56255;SDS011;57229;51.432;-2.598;2024-01-15T13:04:10;6.10;;;4.10;;
56255;SDS011;57229;51.432;-2.598;2024-01-15T13:06:36;3.70;;;3.35;;
56255;SDS011;57229;51.432;-2.598;2024-01-15T13:09:02;4.07;;;3.13;;
56255;SDS011;57229;51.432;-2.598;2024-01-15T13:11:32;5.97;;;3.50;;
56255;SDS011;57229;51.432;-2.598;2024-01-15T13:13:58;2.60;;;2.10;;
56255;SDS011;57229;51.432;-2.598;2024-01-15T13:16:23;3.95;;;2.20;;
56255;SDS011;57229;51.432;-2.598;2024-01-15T13:18:52;4.53;;;2.30;;
56255;SDS011;57229;51.432;-2.598;2024-01-15T13:21:17;3.08;;;2.63;;
56255;SDS011;57229;51.432;-2.598;2024-01-15T13:23:43;4.18;;;3.20;;
56255;SDS011;57229;51.432;-2.598;2024-01-15T13:26:08;3.75;;;3.20;;
56255;SDS011;57229;51.432;-2.598;2024-01-15T13:28:34;3.50;;;3.20;;
56255;SDS011;57229;51.432;-2.598;2024-01-15T13:31:00;5.93;;;3.95;;
56255;SDS011;57229;51.432;-2.598;2024-01-15T13:33:26;6.97;;;3.55;;
56255;SDS011;57229;51.432;-2.598;2024-01-15T13:35:51;5.57;;;3.67;;
56255;SDS011;57229;51.432;-2.598;2024-01-15T13:38:17;13.05;;;3.42;;
56255;SDS011;57229;51.432;-2.598;2024-01-15T13:40:43;5.60;;;2.97;;
56255;SDS011;57229;51.432;-2.598;2024-01-15T13:43:10;9.82;;;2.88;;
56255;SDS011;57229;51.432;-2.598;2024-01-15T13:45:36;3.80;;;2.90;;
56255;SDS011;57229;51.432;-2.598;2024-01-15T13:48:02;7.70;;;4.30;;
56255;SDS011;57229;51.432;-2.598;2024-01-15T13:50:30;13.27;;;3.58;;
56255;SDS011;57229;51.432;-2.598;2024-01-15T13:52:56;5.25;;;2.60;;
56255;SDS011;57229;51.432;-2.598;2024-01-15T13:55:22;3.25;;;2.00;;
56255;SDS011;57229;51.432;-2.598;2024-01-15T13:57:48;6.93;;;2.38;;
56255;SDS011;57229;51.432;-2.598;2024-01-15T14:00:14;6.25;;;1.75;;
56255;SDS011;57229;51.432;-2.598;2024-01-15T14:02:43;4.93;;;1.73;;
56255;SDS011;57229;51.432;-2.598;2024-01-15T14:05:09;2.58;;;1.60;;
56255;SDS011;57229;51.432;-2.598;2024-01-15T14:07:37;5.57;;;1.90;;
56255;SDS011;57229;51.432;-2.598;2024-01-15T14:10:04;5.18;;;1.83;;
56255;SDS011;57229;51.432;-2.598;2024-01-15T14:12:30;3.15;;;1.70;;
56255;SDS011;57229;51.432;-2.598;2024-01-15T14:14:56;5.57;;;1.92;;
56255;SDS011;57229;51.432;-2.598;2024-01-15T14:17:22;3.42;;;1.85;;
56255;SDS011;57229;51.432;-2.598;2024-01-15T14:19:47;5.63;;;1.60;;
56255;SDS011;57229;51.432;-2.598;2024-01-15T14:22:13;2.55;;;1.58;;
56255;SDS011;57229;51.432;-2.598;2024-01-15T14:24:39;3.83;;;1.58;;
56255;SDS011;57229;51.432;-2.598;2024-01-15T14:27:04;3.65;;;1.48;;
56255;SDS011;57229;51.432;-2.598;2024-01-15T14:29:32;4.15;;;2.00;;
56255;SDS011;57229;51.432;-2.598;2024-01-15T14:31:57;4.53;;;2.15;;
56255;SDS011;57229;51.432;-2.598;2024-01-15T14:34:24;2.10;;;1.67;;
56255;SDS011;57229;51.432;-2.598;2024-01-15T14:36:51;4.93;;;2.10;;
56255;SDS011;57229;51.432;-2.598;2024-01-15T14:39:19;6.32;;;3.30;;
56255;SDS011;57229;51.432;-2.598;2024-01-15T14:41:46;6.78;;;1.70;;
56255;SDS011;57229;51.432;-2.598;2024-01-15T14:44:12;12.75;;;6.07;;
56255;SDS011;57229;51.432;-2.598;2024-01-15T14:46:38;16.20;;;5.93;;
56255;SDS011;57229;51.432;-2.598;2024-01-15T14:49:03;5.57;;;2.60;;
56255;SDS011;57229;51.432;-2.598;2024-01-15T14:51:29;5.93;;;2.55;;
56255;SDS011;57229;51.432;-2.598;2024-01-15T14:53:56;14.07;;;4.30;;
56255;SDS011;57229;51.432;-2.598;2024-01-15T14:56:21;5.97;;;3.50;;
56255;SDS011;57229;51.432;-2.598;2024-01-15T14:58:47;7.07;;;2.22;;
56255;SDS011;57229;51.432;-2.598;2024-01-15T15:01:13;5.60;;;2.30;;
56255;SDS011;57229;51.432;-2.598;2024-01-15T15:03:38;6.47;;;2.00;;
56255;SDS011;57229;51.432;-2.598;2024-01-15T15:06:04;3.55;;;1.85;;
56255;SDS011;57229;51.432;-2.598;2024-01-15T15:08:32;4.13;;;1.90;;
56255;SDS011;57229;51.432;-2.598;2024-01-15T15:10:58;4.65;;;2.00;;
56255;SDS011;57229;51.432;-2.598;2024-01-15T15:13:24;6.63;;;2.00;;
56255;SDS011;57229;51.432;-2.598;2024-01-15T15:15:51;4.97;;;1.88;;
56255;SDS011;57229;51.432;-2.598;2024-01-15T15:18:18;2.63;;;1.60;;
56255;SDS011;57229;51.432;-2.598;2024-01-15T15:20:44;4.10;;;1.75;;
56255;SDS011;57229;51.432;-2.598;2024-01-15T15:23:10;3.63;;;1.70;;
56255;SDS011;57229;51.432;-2.598;2024-01-15T15:25:36;5.97;;;1.85;;
56255;SDS011;57229;51.432;-2.598;2024-01-15T15:28:02;4.68;;;1.65;;
56255;SDS011;57229;51.432;-2.598;2024-01-15T15:30:30;4.32;;;1.63;;